Аэропорт: Усть-Каменогорск. Усть-Каменогорск

ICAO: UASK

METAR:
2024-07-24 15:00:00
UASK 241500Z 02002MPS 350V050 9999 NSC 21/18 Q1002 NOSIG RMK QFE726/0968
TAF:
Информация по данной станции не доступна